createdAt,value
2023-05-21T00:01:16.499Z,96309.00
2023-05-21T00:03:45.958Z,96307.06
2023-05-21T00:06:15.530Z,96307.63
2023-05-21T00:08:43.457Z,96307.63
2023-05-21T00:11:11.093Z,96298.69
2023-05-21T00:13:38.722Z,96299.16
2023-05-21T00:16:07.044Z,96298.81
2023-05-21T00:18:35.246Z,96294.81
2023-05-21T00:21:03.032Z,96293.19
2023-05-21T00:23:32.837Z,96290.91
2023-05-21T00:26:00.609Z,96290.69
2023-05-21T00:28:28.260Z,96291.47
2023-05-21T00:30:56.046Z,96288.72
2023-05-21T00:33:26.427Z,96277.38
2023-05-21T00:35:54.204Z,96281.06
2023-05-21T00:38:22.134Z,96274.63
2023-05-21T00:40:51.184Z,96274.28
2023-05-21T00:43:18.826Z,96276.13
2023-05-21T00:45:47.444Z,96264.97
2023-05-21T00:48:16.028Z,96264.97
2023-05-21T00:50:44.965Z,96267.03
2023-05-21T00:53:13.470Z,96258.81
2023-05-21T00:55:42.070Z,96261.34
2023-05-21T00:58:11.135Z,96258.13
2023-05-21T01:00:40.523Z,96258.56
2023-05-21T01:03:08.344Z,96262.25
2023-05-21T01:05:36.965Z,96262.81
2023-05-21T01:08:05.640Z,96254.00
2023-05-21T01:10:33.546Z,96267.44
2023-05-21T01:13:01.500Z,96263.41
2023-05-21T01:15:30.827Z,96263.50
2023-05-21T01:17:58.586Z,96260.19
2023-05-21T01:20:26.415Z,96256.63
2023-05-21T01:22:56.520Z,96256.25
2023-05-21T01:25:25.087Z,96258.91
2023-05-21T01:27:52.940Z,96257.41
2023-05-21T01:30:22.792Z,96263.84
2023-05-21T01:32:56.277Z,96267.50
2023-05-21T01:35:29.785Z,96260.63
2023-05-21T01:38:03.971Z,96263.84
2023-05-21T01:40:38.310Z,96256.63
2023-05-21T01:43:08.220Z,96257.53
2023-05-21T01:45:39.733Z,96258.22
2023-05-21T01:48:09.309Z,96255.38
2023-05-21T01:50:39.026Z,96247.09
2023-05-21T01:53:08.052Z,96249.16
2023-05-21T01:55:39.529Z,96253.53
2023-05-21T01:58:07.221Z,96247.94
2023-05-21T02:00:34.847Z,96252.16
2023-05-21T02:03:02.669Z,96249.88
2023-05-21T02:05:30.496Z,96245.06
2023-05-21T02:08:00.572Z,96245.72
2023-05-21T02:10:29.607Z,96247.47
2023-05-21T02:12:57.201Z,96245.28
2023-05-21T02:15:24.960Z,96247.69
2023-05-21T02:17:53.073Z,96244.47
2023-05-21T02:20:22.285Z,96247.56
2023-05-21T02:22:50.484Z,96243.78
2023-05-21T02:25:19.894Z,96246.41
2023-05-21T02:27:53.912Z,96250.31
2023-05-21T02:30:21.805Z,96250.66
2023-05-21T02:32:50.781Z,96243.91
2023-05-21T02:35:18.633Z,96236.91
2023-05-21T02:37:46.238Z,96233.47
2023-05-21T02:40:14.154Z,96238.53
2023-05-21T02:42:42.178Z,96233.94
2023-05-21T02:45:13.554Z,96233.25
2023-05-21T02:47:41.443Z,96244.69
2023-05-21T02:50:10.546Z,96239.09
2023-05-21T02:52:38.151Z,96237.38
2023-05-21T02:55:06.546Z,96241.00
2023-05-21T02:57:34.176Z,96242.06
2023-05-21T03:00:01.819Z,96236.66
2023-05-21T03:02:30.963Z,96240.78
2023-05-21T03:04:58.940Z,96237.78
2023-05-21T03:07:26.779Z,96233.53
2023-05-21T03:09:54.405Z,96232.75
2023-05-21T03:12:22.038Z,96239.38
2023-05-21T03:14:51.391Z,96232.41
2023-05-21T03:17:20.580Z,96234.91
2023-05-21T03:19:50.094Z,96235.38
2023-05-21T03:22:17.743Z,96239.84
2023-05-21T03:24:46.315Z,96243.13
2023-05-21T03:27:14.048Z,96242.56
2023-05-21T03:29:43.203Z,96239.94
2023-05-21T03:32:10.935Z,96236.72
2023-05-21T03:34:38.509Z,96231.78
2023-05-21T03:37:07.648Z,96228.59
2023-05-21T03:39:35.238Z,96229.84
2023-05-21T03:42:02.875Z,96222.41
2023-05-21T03:44:32.397Z,96230.72
2023-05-21T03:47:00.144Z,96231.56
2023-05-21T03:49:27.851Z,96236.00
2023-05-21T03:51:55.509Z,96239.66
2023-05-21T03:54:24.487Z,96243.75
2023-05-21T03:56:52.095Z,96241.81
2023-05-21T03:59:19.739Z,96244.06
2023-05-21T04:01:47.331Z,96236.53
2023-05-21T04:04:15.185Z,96246.59
2023-05-21T04:06:42.852Z,96238.81
2023-05-21T04:09:10.487Z,96239.38
2023-05-21T04:11:39.407Z,96241.72
2023-05-21T04:14:07.230Z,96246.75
2023-05-21T04:16:35.994Z,96245.00
2023-05-21T04:19:03.682Z,96245.09
2023-05-21T04:21:32.219Z,96248.06
2023-05-21T04:24:00.856Z,96253.47
2023-05-21T04:26:29.506Z,96255.16
2023-05-21T04:28:59.384Z,96261.72
2023-05-21T04:31:27.086Z,96257.94
2023-05-21T04:33:54.737Z,96258.16
2023-05-21T04:36:22.366Z,96261.81
2023-05-21T04:38:49.971Z,96262.81
2023-05-21T04:41:18.928Z,96270.63
2023-05-21T04:43:46.676Z,96274.50
2023-05-21T04:46:15.818Z,96277.97
2023-05-21T04:48:45.128Z,96272.41
2023-05-21T04:51:12.752Z,96279.28
2023-05-21T04:53:40.484Z,96279.88
2023-05-21T04:56:09.261Z,96276.66
2023-05-21T04:58:37.234Z,96276.19
2023-05-21T05:01:05.031Z,96280.66
2023-05-21T05:03:34.046Z,96281.13
2023-05-21T05:06:04.289Z,96280.31
2023-05-21T05:08:31.928Z,96284.22
2023-05-21T05:10:59.564Z,96277.59
2023-05-21T05:13:27.184Z,96285.75
2023-05-21T05:15:54.949Z,96277.28
2023-05-21T05:18:22.588Z,96278.97
2023-05-21T05:20:51.568Z,96281.03
2023-05-21T05:23:19.144Z,96277.59
2023-05-21T05:25:46.832Z,96276.78
2023-05-21T05:28:14.494Z,96274.16
2023-05-21T05:30:42.137Z,96283.34
2023-05-21T05:33:09.821Z,96280.03
2023-05-21T05:35:37.733Z,96275.59
2023-05-21T05:38:08.848Z,96287.97
2023-05-21T05:40:36.487Z,96282.25
2023-05-21T05:43:04.163Z,96282.50
2023-05-21T05:45:31.762Z,96271.31
2023-05-21T05:47:59.376Z,96268.00
2023-05-21T05:50:27.058Z,96270.66
2023-05-21T05:52:54.710Z,96273.31
2023-05-21T05:55:25.128Z,96281.44
2023-05-21T05:57:52.734Z,96278.69
2023-05-21T06:00:20.912Z,96284.75
2023-05-21T06:02:49.202Z,96275.84
2023-05-21T06:05:17.249Z,96275.38
2023-05-21T06:07:44.954Z,96270.91
2023-05-21T06:10:12.597Z,96280.75
2023-05-21T06:12:41.590Z,96278.84
2023-05-21T06:15:10.301Z,96281.38
2023-05-21T06:17:37.973Z,96278.50
2023-05-21T06:20:07.250Z,96279.63
2023-05-21T06:22:34.901Z,96281.84
2023-05-21T06:25:02.502Z,96283.56
2023-05-21T06:27:30.619Z,96279.91
2023-05-21T06:29:59.531Z,96280.00
2023-05-21T06:32:27.153Z,96280.94
2023-05-21T06:34:54.763Z,96274.41
2023-05-21T06:37:23.456Z,96276.13
2023-05-21T06:39:52.402Z,96270.38
2023-05-21T06:42:19.960Z,96279.91
2023-05-21T06:44:47.517Z,96276.22
2023-05-21T06:47:16.423Z,96282.88
2023-05-21T06:49:43.997Z,96272.66
2023-05-21T06:52:11.561Z,96282.75
2023-05-21T06:54:39.240Z,96280.69
2023-05-21T06:57:06.880Z,96290.19
2023-05-21T06:59:34.636Z,96288.59
2023-05-21T07:02:04.491Z,96294.22
2023-05-21T07:04:35.263Z,96287.88
2023-05-21T07:07:04.473Z,96289.28
2023-05-21T07:09:32.161Z,96297.75
2023-05-21T07:12:01.242Z,96290.88
2023-05-21T07:14:28.851Z,96293.59
2023-05-21T07:16:56.451Z,96293.97
2023-05-21T07:19:24.103Z,96296.69
2023-05-21T07:21:53.081Z,96298.19
2023-05-21T07:24:21.113Z,96297.25
2023-05-21T07:26:48.723Z,96298.97
2023-05-21T07:29:16.363Z,96301.78
2023-05-21T07:31:43.967Z,96300.28
2023-05-21T07:34:11.544Z,96292.47
2023-05-21T07:36:39.137Z,96299.25
2023-05-21T07:39:08.364Z,96297.72
2023-05-21T07:41:36.080Z,96291.25
2023-05-21T07:44:03.716Z,96292.50
2023-05-21T07:46:31.334Z,96300.28
2023-05-21T07:48:58.993Z,96292.44
2023-05-21T07:51:27.058Z,96295.72
2023-05-21T07:53:55.381Z,96299.03
2023-05-21T07:56:24.628Z,96294.84
2023-05-21T07:58:52.185Z,96301.81
2023-05-21T08:01:19.833Z,96296.66
2023-05-21T08:03:47.529Z,96293.84
2023-05-21T08:06:15.237Z,96294.72
2023-05-21T08:08:42.831Z,96305.13
2023-05-21T08:11:10.426Z,96300.72
2023-05-21T08:13:39.355Z,96307.47
2023-05-21T08:16:07.664Z,96300.66
2023-05-21T08:18:35.279Z,96300.75
2023-05-21T08:21:02.968Z,96294.41
2023-05-21T08:23:30.536Z,96298.16
2023-05-21T08:25:58.258Z,96300.09
2023-05-21T08:28:27.510Z,96297.75
2023-05-21T08:30:56.469Z,96297.81
2023-05-21T08:33:24.074Z,96304.00
2023-05-21T08:35:51.660Z,96292.69
2023-05-21T08:38:19.235Z,96290.34
2023-05-21T08:40:48.071Z,96289.59
2023-05-21T08:43:16.541Z,96292.06
2023-05-21T08:45:46.415Z,96293.19
2023-05-21T08:48:17.439Z,96291.09
2023-05-21T08:50:46.148Z,96290.91
2023-05-21T08:53:26.653Z,96298.66
2023-05-21T08:55:59.838Z,96294.78
2023-05-21T08:58:28.084Z,96286.13
2023-05-21T09:00:57.541Z,96292.56
2023-05-21T09:03:27.427Z,96298.69
2023-05-21T09:05:56.145Z,96303.50
2023-05-21T09:08:30.774Z,96300.91
2023-05-21T09:10:58.338Z,96306.78
2023-05-21T09:13:27.446Z,96301.84
2023-05-21T09:15:55.044Z,96303.03
2023-05-21T09:18:22.666Z,96303.38
2023-05-21T09:20:54.033Z,96304.28
2023-05-21T09:23:21.649Z,96301.97
2023-05-21T09:25:51.918Z,96304.69
2023-05-21T09:28:21.319Z,96308.78
2023-05-21T09:30:50.567Z,96309.13
2023-05-21T09:33:26.578Z,96306.53
2023-05-21T09:35:55.502Z,96306.06
2023-05-21T09:38:24.510Z,96317.25
2023-05-21T09:40:52.103Z,96306.16
2023-05-21T09:43:19.726Z,96301.47
2023-05-21T09:45:54.281Z,96313.19
2023-05-21T09:48:35.697Z,96313.75
2023-05-21T09:51:16.004Z,96310.88
2023-05-21T09:53:49.842Z,96308.03
2023-05-21T09:56:20.071Z,96306.72
2023-05-21T09:58:47.682Z,96303.25
2023-05-21T10:01:15.348Z,96312.84
2023-05-21T10:03:45.508Z,96309.69
2023-05-21T10:06:15.798Z,96314.47
2023-05-21T10:08:48.843Z,96309.19
2023-05-21T10:11:17.730Z,96313.19
2023-05-21T10:13:51.939Z,96308.69
2023-05-21T10:16:19.987Z,96311.06
2023-05-21T10:18:49.600Z,96312.41
2023-05-21T10:21:19.401Z,96311.09
2023-05-21T10:23:47.350Z,96309.78
2023-05-21T10:26:15.453Z,96308.72
2023-05-21T10:28:43.872Z,96307.69
2023-05-21T10:31:13.147Z,96304.25
2023-05-21T10:33:43.176Z,96307.16
2023-05-21T10:36:11.127Z,96305.34
2023-05-21T10:38:41.571Z,96315.72
2023-05-21T10:41:10.664Z,96312.53
2023-05-21T10:43:57.460Z,96310.69
2023-05-21T10:47:06.500Z,96303.28
2023-05-21T10:49:50.129Z,96305.69
2023-05-21T10:52:32.477Z,96300.38
2023-05-21T10:55:23.531Z,96294.00
2023-05-21T10:58:14.933Z,96286.84
2023-05-21T11:00:44.320Z,96284.97
2023-05-21T11:03:15.949Z,96282.84
2023-05-21T11:05:53.818Z,96284.97
2023-05-21T11:08:31.656Z,96280.44
2023-05-21T11:11:00.654Z,96284.69
2023-05-21T11:13:31.308Z,96284.97
2023-05-21T11:16:08.963Z,96279.63
2023-05-21T11:18:58.091Z,96282.78
2023-05-21T11:21:28.483Z,96287.28
2023-05-21T11:23:57.322Z,96281.44
2023-05-21T11:26:28.281Z,96282.50
2023-05-21T11:29:08.490Z,96278.75
2023-05-21T11:31:39.484Z,96270.47
2023-05-21T11:34:12.852Z,96274.47
2023-05-21T11:36:42.125Z,96273.38
2023-05-21T11:39:11.000Z,96282.38
2023-05-21T11:42:01.609Z,96273.31
2023-05-21T11:44:41.198Z,96275.16
2023-05-21T11:47:10.217Z,96278.91
2023-05-21T11:49:39.122Z,96278.31
2023-05-21T11:52:09.404Z,96277.25
2023-05-21T11:54:53.089Z,96274.81
2023-05-21T11:57:41.226Z,96278.25
2023-05-21T12:00:22.040Z,96279.81
2023-05-21T12:02:56.120Z,96281.13
2023-05-21T12:05:27.416Z,96281.38
2023-05-21T12:07:58.558Z,96282.69
2023-05-21T12:10:39.920Z,96289.38
2023-05-21T12:13:21.352Z,96283.53
2023-05-21T12:16:00.893Z,96283.28
2023-05-21T12:18:41.486Z,96273.44
2023-05-21T12:21:41.397Z,96278.19
2023-05-21T12:24:16.468Z,96274.44
2023-05-21T12:26:52.269Z,96272.81
2023-05-21T12:32:50.487Z,96274.91
2023-05-21T12:35:28.265Z,96273.03
2023-05-21T12:38:04.577Z,96269.56
2023-05-21T12:40:41.199Z,96274.34
2023-05-21T12:43:10.114Z,96272.19
2023-05-21T12:45:41.065Z,96269.25
2023-05-21T12:48:09.206Z,96273.25
2023-05-21T12:50:41.736Z,96271.66
2023-05-21T12:53:11.067Z,96282.31
2023-05-21T12:55:40.552Z,96286.00
2023-05-21T12:58:09.567Z,96276.66
2023-05-21T13:00:39.809Z,96280.13
2023-05-21T13:03:08.446Z,96275.84
2023-05-21T13:05:36.728Z,96280.66
2023-05-21T13:08:04.850Z,96282.84
2023-05-21T13:10:33.311Z,96278.63
2023-05-21T13:13:01.844Z,96270.69
2023-05-21T13:15:30.170Z,96269.63
2023-05-21T13:18:01.489Z,96277.09
2023-05-21T13:20:30.611Z,96264.88
2023-05-21T13:22:59.152Z,96272.34
2023-05-21T13:25:29.916Z,96269.94
2023-05-21T13:27:59.166Z,96271.78
2023-05-21T13:30:27.523Z,96265.63
2023-05-21T13:32:56.625Z,96252.53
2023-05-21T13:35:26.763Z,96253.59
2023-05-21T13:37:58.787Z,96257.81
2023-05-21T13:40:27.870Z,96258.81
2023-05-21T13:42:56.622Z,96266.78
2023-05-21T13:45:29.593Z,96261.69
2023-05-21T13:48:01.777Z,96256.34
2023-05-21T13:50:31.468Z,96251.84
2023-05-21T13:53:05.553Z,96262.75
2023-05-21T13:55:37.418Z,96254.22
2023-05-21T13:58:06.715Z,96249.69
2023-05-21T14:00:37.459Z,96255.28
2023-05-21T14:03:10.189Z,96252.81
2023-05-21T14:05:42.450Z,96253.28
2023-05-21T14:08:10.625Z,96252.16
2023-05-21T14:10:38.970Z,96251.59
2023-05-21T14:13:19.485Z,96247.84
2023-05-21T14:15:48.579Z,96253.97
2023-05-21T14:18:16.659Z,96241.97
2023-05-21T14:21:17.843Z,96244.06
2023-05-21T14:24:01.155Z,96244.59
2023-05-21T14:26:29.533Z,96242.50
2023-05-21T14:28:57.223Z,96237.47
2023-05-21T14:31:25.981Z,96251.63
2023-05-21T14:33:54.017Z,96243.41
2023-05-21T14:36:23.564Z,96234.31
2023-05-21T14:38:51.656Z,96246.34
2023-05-21T14:41:26.835Z,96241.59
2023-05-21T14:43:55.408Z,96242.13
2023-05-21T14:46:23.427Z,96236.25
2023-05-21T14:48:51.856Z,96240.00
2023-05-21T14:51:20.441Z,96238.09
2023-05-21T14:53:51.503Z,96229.19
2023-05-21T14:56:21.742Z,96228.56
2023-05-21T14:58:49.641Z,96229.84
2023-05-21T15:01:17.742Z,96233.81
2023-05-21T15:03:45.786Z,96234.09
2023-05-21T15:06:13.779Z,96233.84
2023-05-21T15:08:41.539Z,96236.00
2023-05-21T15:11:11.592Z,96232.81
2023-05-21T15:13:45.832Z,96235.47
2023-05-21T15:16:13.443Z,96234.69
2023-05-21T15:18:41.068Z,96226.75
2023-05-21T15:21:08.609Z,96222.28
2023-05-21T15:23:39.822Z,96225.59
2023-05-21T15:26:09.629Z,96222.94
2023-05-21T15:28:39.671Z,96226.72
2023-05-21T15:31:15.125Z,96225.91
2023-05-21T15:33:44.713Z,96228.06
2023-05-21T15:36:12.804Z,96231.56
2023-05-21T15:38:46.338Z,96219.31
2023-05-21T15:42:13.187Z,96224.63
2023-05-21T15:45:50.573Z,96227.31
2023-05-21T15:52:23.427Z,96217.16
2023-05-21T20:06:48.936Z,96289.25
2023-05-21T20:09:21.828Z,96290.31
2023-05-21T20:11:51.062Z,96287.34
2023-05-21T20:14:19.689Z,96291.03
2023-05-21T20:16:48.497Z,96293.19
2023-05-21T20:19:17.031Z,96283.84
2023-05-21T20:22:52.685Z,96286.50
2023-05-21T20:26:07.936Z,96296.00
2023-05-21T20:29:10.387Z,96292.00
2023-05-21T20:32:08.686Z,96288.50
2023-05-21T23:21:16.156Z,96310.97
2023-05-21T23:23:43.743Z,96308.81
2023-05-21T23:26:11.450Z,96309.84
2023-05-21T23:28:39.595Z,96307.69
2023-05-21T23:31:07.196Z,96307.91
2023-05-21T23:33:34.857Z,96299.44
2023-05-21T23:36:02.401Z,96296.22
2023-05-21T23:38:31.235Z,96300.72
2023-05-21T23:40:58.777Z,96297.50
2023-05-21T23:43:26.428Z,96302.78
2023-05-21T23:45:53.982Z,96306.50
2023-05-21T23:48:21.649Z,96306.50
2023-05-21T23:50:49.402Z,96305.44
2023-05-21T23:53:17.035Z,96301.28
2023-05-21T23:55:46.055Z,96303.91
2023-05-21T23:58:13.733Z,96293.69
